Primrose, Nebraska
Current Conditions -  °F | °C
As of 6:55 PM on Saturday 22 Nov 2014 (Local Time) from KBVN Reporting Station
Clear Clear  
Wind Chill: 40°   Ceiling: Unl
Heat Index: 40°   Visibility: 10mi
Dew Point: 32°   Wind: 0mph
Humidity: 74%   Direction: NA
Pressure: 29.54"   Gusts: NA
Location:  41.62°N, 98.24°W
Report Text: KBVN 230055Z AUTO 00000KT 10SM CLR 04/00 A2954 RMK AO2 T00430000
Loading
Personal Weather Stations






























Interactive Weather Map New forecast layout! Learn more

10-Day Weather Forecast

Advertisements
Track Severe Weather on mobile